Winston, Virginia
Current Conditions -  °F | °C
As of 1:36 PM on Monday 26 Jan 2015 (Local Time) from KCJR Reporting Station
Light Rain Light Rain  
Wind Chill: 31°   Ceiling: 800
Heat Index: 36°   Visibility: 10mi
Dew Point: 34°   Wind: 6mph
Humidity: 93%   Direction: 20°NNE
Pressure: 29.71"   Gusts: NA
Location:  38.467°N, 77.9818°W
Report Text: KCJR 261836Z AUTO 02005KT 10SM -RA OVC008 02/01 A2971 RMK AO2
Loading
Personal Weather Stations






























Interactive Weather Map New forecast layout! Learn more

10-Day Weather Forecast

Advertisements
Track Severe Weather on mobile